sensor_id;sensor_type;location;lat;lon;timestamp;temperature;humidity
42365;DHT22;28498;54.400;18.566;2023-01-24T00:00:43;0.20;99.90
42365;DHT22;28498;54.400;18.566;2023-01-24T00:03:10;0.20;99.90
42365;DHT22;28498;54.400;18.566;2023-01-24T00:05:42;0.20;99.90
42365;DHT22;28498;54.400;18.566;2023-01-24T00:08:14;0.20;99.90
42365;DHT22;28498;54.400;18.566;2023-01-24T00:10:41;0.10;99.90
42365;DHT22;28498;54.400;18.566;2023-01-24T00:13:13;0.20;99.90
42365;DHT22;28498;54.400;18.566;2023-01-24T00:15:41;0.20;99.90
42365;DHT22;28498;54.400;18.566;2023-01-24T00:18:08;0.20;99.90
42365;DHT22;28498;54.400;18.566;2023-01-24T00:20:35;0.20;99.90
42365;DHT22;28498;54.400;18.566;2023-01-24T00:23:03;0.20;99.90
42365;DHT22;28498;54.400;18.566;2023-01-24T00:25:30;0.20;99.90
42365;DHT22;28498;54.400;18.566;2023-01-24T00:27:57;0.20;99.90
42365;DHT22;28498;54.400;18.566;2023-01-24T00:30:24;0.20;99.90
42365;DHT22;28498;54.400;18.566;2023-01-24T00:32:51;0.20;99.90
42365;DHT22;28498;54.400;18.566;2023-01-24T00:35:18;0.20;99.90
42365;DHT22;28498;54.400;18.566;2023-01-24T00:37:45;0.20;99.90
42365;DHT22;28498;54.400;18.566;2023-01-24T00:40:13;0.20;99.90
42365;DHT22;28498;54.400;18.566;2023-01-24T00:42:40;0.20;99.90
42365;DHT22;28498;54.400;18.566;2023-01-24T00:45:07;0.20;99.90
42365;DHT22;28498;54.400;18.566;2023-01-24T00:47:34;0.20;99.90
42365;DHT22;28498;54.400;18.566;2023-01-24T00:50:01;0.20;99.90
42365;DHT22;28498;54.400;18.566;2023-01-24T00:52:28;0.10;99.90
42365;DHT22;28498;54.400;18.566;2023-01-24T00:54:56;0.10;99.90
42365;DHT22;28498;54.400;18.566;2023-01-24T00:57:23;0.10;99.90
42365;DHT22;28498;54.400;18.566;2023-01-24T00:59:51;0.10;99.90
42365;DHT22;28498;54.400;18.566;2023-01-24T01:02:18;0.10;99.90
42365;DHT22;28498;54.400;18.566;2023-01-24T01:04:45;0.10;99.90
42365;DHT22;28498;54.400;18.566;2023-01-24T01:07:12;0.00;99.90
42365;DHT22;28498;54.400;18.566;2023-01-24T01:09:39;0.00;99.90
42365;DHT22;28498;54.400;18.566;2023-01-24T01:12:06;0.00;99.90
42365;DHT22;28498;54.400;18.566;2023-01-24T01:14:33;0.00;99.90
42365;DHT22;28498;54.400;18.566;2023-01-24T01:17:01;0.00;99.90
42365;DHT22;28498;54.400;18.566;2023-01-24T01:19:28;0.00;99.90
42365;DHT22;28498;54.400;18.566;2023-01-24T01:21:55;0.00;99.90
42365;DHT22;28498;54.400;18.566;2023-01-24T01:24:22;0.00;99.90
42365;DHT22;28498;54.400;18.566;2023-01-24T01:26:49;0.00;99.90
42365;DHT22;28498;54.400;18.566;2023-01-24T01:29:16;0.00;99.90
42365;DHT22;28498;54.400;18.566;2023-01-24T01:31:43;0.00;99.90
42365;DHT22;28498;54.400;18.566;2023-01-24T01:34:11;0.00;99.90
42365;DHT22;28498;54.400;18.566;2023-01-24T01:36:38;0.00;99.90
42365;DHT22;28498;54.400;18.566;2023-01-24T01:39:05;0.10;99.90
42365;DHT22;28498;54.400;18.566;2023-01-24T01:41:32;0.00;99.90
42365;DHT22;28498;54.400;18.566;2023-01-24T01:44:22;0.00;99.90
42365;DHT22;28498;54.400;18.566;2023-01-24T01:47:31;0.10;99.90
42365;DHT22;28498;54.400;18.566;2023-01-24T01:50:21;0.00;99.90
42365;DHT22;28498;54.400;18.566;2023-01-24T01:52:51;0.00;99.90
42365;DHT22;28498;54.400;18.566;2023-01-24T01:55:21;0.00;99.90
42365;DHT22;28498;54.400;18.566;2023-01-24T01:57:51;0.00;99.90
42365;DHT22;28498;54.400;18.566;2023-01-24T02:00:21;-0.10;99.90
42365;DHT22;28498;54.400;18.566;2023-01-24T02:03:01;0.00;99.90
42365;DHT22;28498;54.400;18.566;2023-01-24T02:05:50;-0.10;99.90
42365;DHT22;28498;54.400;18.566;2023-01-24T02:08:21;-0.10;99.90
42365;DHT22;28498;54.400;18.566;2023-01-24T02:10:50;-0.10;99.90
42365;DHT22;28498;54.400;18.566;2023-01-24T02:13:36;-0.10;99.90
42365;DHT22;28498;54.400;18.566;2023-01-24T02:16:12;-0.10;99.90
42365;DHT22;28498;54.400;18.566;2023-01-24T02:18:41;-0.10;99.90
42365;DHT22;28498;54.400;18.566;2023-01-24T02:21:14;-0.10;99.90
42365;DHT22;28498;54.400;18.566;2023-01-24T02:23:57;-0.10;99.90
42365;DHT22;28498;54.400;18.566;2023-01-24T02:26:27;-0.10;99.90
42365;DHT22;28498;54.400;18.566;2023-01-24T02:29:02;-0.10;99.90
42365;DHT22;28498;54.400;18.566;2023-01-24T02:31:57;-0.10;99.90
42365;DHT22;28498;54.400;18.566;2023-01-24T02:34:25;-0.20;99.90
42365;DHT22;28498;54.400;18.566;2023-01-24T02:36:56;-0.20;99.90
42365;DHT22;28498;54.400;18.566;2023-01-24T02:39:28;-0.20;99.90
42365;DHT22;28498;54.400;18.566;2023-01-24T02:42:03;-0.20;99.90
42365;DHT22;28498;54.400;18.566;2023-01-24T02:47:11;-0.20;99.90
42365;DHT22;28498;54.400;18.566;2023-01-24T02:49:38;-0.20;99.90
42365;DHT22;28498;54.400;18.566;2023-01-24T02:52:07;-0.20;99.90
42365;DHT22;28498;54.400;18.566;2023-01-24T02:54:53;-0.20;99.90
42365;DHT22;28498;54.400;18.566;2023-01-24T02:57:20;-0.20;99.90
42365;DHT22;28498;54.400;18.566;2023-01-24T03:00:06;-0.20;99.90
42365;DHT22;28498;54.400;18.566;2023-01-24T03:02:34;-0.20;99.90
42365;DHT22;28498;54.400;18.566;2023-01-24T03:05:01;-0.20;99.90
42365;DHT22;28498;54.400;18.566;2023-01-24T03:07:28;-0.20;99.90
42365;DHT22;28498;54.400;18.566;2023-01-24T03:10:13;-0.20;99.90
42365;DHT22;28498;54.400;18.566;2023-01-24T03:12:40;-0.20;99.90
42365;DHT22;28498;54.400;18.566;2023-01-24T03:15:26;-0.20;99.90
42365;DHT22;28498;54.400;18.566;2023-01-24T03:18:12;-0.20;99.90
42365;DHT22;28498;54.400;18.566;2023-01-24T03:20:58;-0.30;99.90
42365;DHT22;28498;54.400;18.566;2023-01-24T03:23:44;-0.20;99.90
42365;DHT22;28498;54.400;18.566;2023-01-24T03:26:29;-0.30;99.90
42365;DHT22;28498;54.400;18.566;2023-01-24T03:29:15;-0.30;99.90
42365;DHT22;28498;54.400;18.566;2023-01-24T03:32:00;-0.30;99.90
42365;DHT22;28498;54.400;18.566;2023-01-24T03:34:46;-0.30;99.90
42365;DHT22;28498;54.400;18.566;2023-01-24T03:37:18;-0.30;99.90
42365;DHT22;28498;54.400;18.566;2023-01-24T03:40:14;-0.30;99.90
42365;DHT22;28498;54.400;18.566;2023-01-24T03:42:41;-0.40;99.90
42365;DHT22;28498;54.400;18.566;2023-01-24T03:45:20;-0.40;99.90
42365;DHT22;28498;54.400;18.566;2023-01-24T03:47:50;-0.30;99.90
42365;DHT22;28498;54.400;18.566;2023-01-24T03:50:32;-0.40;99.90
42365;DHT22;28498;54.400;18.566;2023-01-24T03:53:19;-0.40;99.90
42365;DHT22;28498;54.400;18.566;2023-01-24T03:55:54;-0.40;99.90
42365;DHT22;28498;54.400;18.566;2023-01-24T03:58:22;-0.50;99.90
42365;DHT22;28498;54.400;18.566;2023-01-24T04:00:51;-0.40;99.90
42365;DHT22;28498;54.400;18.566;2023-01-24T04:03:19;-0.40;99.90
42365;DHT22;28498;54.400;18.566;2023-01-24T04:05:50;-0.50;99.90
42365;DHT22;28498;54.400;18.566;2023-01-24T04:08:17;-0.50;99.90
42365;DHT22;28498;54.400;18.566;2023-01-24T04:10:44;-0.50;99.90
42365;DHT22;28498;54.400;18.566;2023-01-24T04:13:12;-0.50;99.90
42365;DHT22;28498;54.400;18.566;2023-01-24T04:15:39;-0.50;99.90
42365;DHT22;28498;54.400;18.566;2023-01-24T04:18:06;-0.50;99.90
42365;DHT22;28498;54.400;18.566;2023-01-24T04:20:36;-0.50;99.90
42365;DHT22;28498;54.400;18.566;2023-01-24T04:23:05;-0.50;99.90
42365;DHT22;28498;54.400;18.566;2023-01-24T04:25:33;-0.50;99.90
42365;DHT22;28498;54.400;18.566;2023-01-24T04:28:01;-0.50;99.90
42365;DHT22;28498;54.400;18.566;2023-01-24T04:30:28;-0.60;99.90
42365;DHT22;28498;54.400;18.566;2023-01-24T04:32:55;-0.60;99.90
42365;DHT22;28498;54.400;18.566;2023-01-24T04:35:27;-0.60;99.90
42365;DHT22;28498;54.400;18.566;2023-01-24T04:37:57;-0.60;99.90
42365;DHT22;28498;54.400;18.566;2023-01-24T04:40:25;-0.60;99.90
42365;DHT22;28498;54.400;18.566;2023-01-24T04:42:55;-0.70;99.90
42365;DHT22;28498;54.400;18.566;2023-01-24T04:45:22;-0.70;99.90
42365;DHT22;28498;54.400;18.566;2023-01-24T04:47:49;-0.70;99.90
42365;DHT22;28498;54.400;18.566;2023-01-24T04:50:17;-0.70;99.90
42365;DHT22;28498;54.400;18.566;2023-01-24T04:52:43;-0.70;99.90
42365;DHT22;28498;54.400;18.566;2023-01-24T04:55:10;-0.70;99.90
42365;DHT22;28498;54.400;18.566;2023-01-24T04:57:37;-0.80;99.90
42365;DHT22;28498;54.400;18.566;2023-01-24T05:00:05;-0.80;99.90
42365;DHT22;28498;54.400;18.566;2023-01-24T05:02:34;-0.80;99.90
42365;DHT22;28498;54.400;18.566;2023-01-24T05:05:02;-0.80;99.90
42365;DHT22;28498;54.400;18.566;2023-01-24T05:07:29;-0.80;99.90
42365;DHT22;28498;54.400;18.566;2023-01-24T05:09:56;-0.80;99.90
42365;DHT22;28498;54.400;18.566;2023-01-24T05:12:23;-0.80;99.90
42365;DHT22;28498;54.400;18.566;2023-01-24T05:14:50;-0.90;99.90
42365;DHT22;28498;54.400;18.566;2023-01-24T05:17:17;-0.90;99.90
42365;DHT22;28498;54.400;18.566;2023-01-24T05:19:44;-0.90;99.90
42365;DHT22;28498;54.400;18.566;2023-01-24T05:22:11;-0.90;99.90
42365;DHT22;28498;54.400;18.566;2023-01-24T05:24:38;-0.90;99.90
42365;DHT22;28498;54.400;18.566;2023-01-24T05:27:05;-0.90;99.90
42365;DHT22;28498;54.400;18.566;2023-01-24T05:29:32;-0.90;99.90
42365;DHT22;28498;54.400;18.566;2023-01-24T05:31:59;-0.90;99.90
42365;DHT22;28498;54.400;18.566;2023-01-24T05:34:27;-1.00;99.90
42365;DHT22;28498;54.400;18.566;2023-01-24T05:36:54;-0.80;99.90
42365;DHT22;28498;54.400;18.566;2023-01-24T05:39:20;-0.90;99.90
42365;DHT22;28498;54.400;18.566;2023-01-24T05:41:47;-0.90;99.90
42365;DHT22;28498;54.400;18.566;2023-01-24T05:44:15;-0.90;99.90
42365;DHT22;28498;54.400;18.566;2023-01-24T05:46:42;-0.90;99.90
42365;DHT22;28498;54.400;18.566;2023-01-24T05:49:10;-0.90;99.90
42365;DHT22;28498;54.400;18.566;2023-01-24T05:51:38;-0.90;99.90
42365;DHT22;28498;54.400;18.566;2023-01-24T05:54:05;-0.80;99.90
42365;DHT22;28498;54.400;18.566;2023-01-24T05:56:32;-0.80;99.90
42365;DHT22;28498;54.400;18.566;2023-01-24T05:58:59;-0.90;99.90
42365;DHT22;28498;54.400;18.566;2023-01-24T06:01:28;-0.90;99.90
42365;DHT22;28498;54.400;18.566;2023-01-24T06:03:55;-1.00;99.90
42365;DHT22;28498;54.400;18.566;2023-01-24T06:06:23;-1.00;99.90
42365;DHT22;28498;54.400;18.566;2023-01-24T06:08:51;-0.90;99.90
42365;DHT22;28498;54.400;18.566;2023-01-24T06:11:20;-1.00;99.90
42365;DHT22;28498;54.400;18.566;2023-01-24T06:13:48;-1.10;99.90
42365;DHT22;28498;54.400;18.566;2023-01-24T06:16:17;-1.00;99.90
42365;DHT22;28498;54.400;18.566;2023-01-24T06:18:45;-1.00;99.90
42365;DHT22;28498;54.400;18.566;2023-01-24T06:23:48;-0.90;99.90
42365;DHT22;28498;54.400;18.566;2023-01-24T06:26:16;-0.90;99.90
42365;DHT22;28498;54.400;18.566;2023-01-24T06:28:43;-0.90;99.90
42365;DHT22;28498;54.400;18.566;2023-01-24T06:34:08;-0.90;99.90
42365;DHT22;28498;54.400;18.566;2023-01-24T06:36:43;-0.90;99.90
42365;DHT22;28498;54.400;18.566;2023-01-24T06:39:14;-0.90;99.90
42365;DHT22;28498;54.400;18.566;2023-01-24T06:41:42;-1.00;99.90
42365;DHT22;28498;54.400;18.566;2023-01-24T06:44:11;-1.10;99.90
42365;DHT22;28498;54.400;18.566;2023-01-24T06:46:38;-1.10;99.90
42365;DHT22;28498;54.400;18.566;2023-01-24T06:49:06;-1.10;99.90
42365;DHT22;28498;54.400;18.566;2023-01-24T06:51:33;-1.10;99.90
42365;DHT22;28498;54.400;18.566;2023-01-24T06:54:00;-1.00;99.90
42365;DHT22;28498;54.400;18.566;2023-01-24T06:56:29;-1.10;99.90
42365;DHT22;28498;54.400;18.566;2023-01-24T06:58:56;-1.00;99.90
42365;DHT22;28498;54.400;18.566;2023-01-24T07:01:24;-1.00;99.90
42365;DHT22;28498;54.400;18.566;2023-01-24T07:03:51;-1.10;99.90
42365;DHT22;28498;54.400;18.566;2023-01-24T07:06:18;-1.10;99.90
42365;DHT22;28498;54.400;18.566;2023-01-24T07:08:46;-1.10;99.90
42365;DHT22;28498;54.400;18.566;2023-01-24T07:11:13;-1.20;99.90
42365;DHT22;28498;54.400;18.566;2023-01-24T07:13:40;-1.10;99.90
42365;DHT22;28498;54.400;18.566;2023-01-24T07:16:07;-1.10;99.90
42365;DHT22;28498;54.400;18.566;2023-01-24T07:18:34;-1.00;99.90
42365;DHT22;28498;54.400;18.566;2023-01-24T07:21:07;-1.00;99.90
42365;DHT22;28498;54.400;18.566;2023-01-24T07:23:35;-1.00;99.90
42365;DHT22;28498;54.400;18.566;2023-01-24T07:26:03;-0.90;99.90
42365;DHT22;28498;54.400;18.566;2023-01-24T07:28:30;-0.90;99.90
42365;DHT22;28498;54.400;18.566;2023-01-24T07:30:57;-0.80;99.90
42365;DHT22;28498;54.400;18.566;2023-01-24T07:33:24;-0.80;99.90
42365;DHT22;28498;54.400;18.566;2023-01-24T07:35:51;-0.90;99.90
42365;DHT22;28498;54.400;18.566;2023-01-24T07:38:18;-0.90;99.90
42365;DHT22;28498;54.400;18.566;2023-01-24T07:40:45;-1.10;99.90
42365;DHT22;28498;54.400;18.566;2023-01-24T07:43:13;-1.10;99.90
42365;DHT22;28498;54.400;18.566;2023-01-24T07:45:40;-1.20;99.90
42365;DHT22;28498;54.400;18.566;2023-01-24T07:48:07;-1.10;99.90
42365;DHT22;28498;54.400;18.566;2023-01-24T07:50:34;-1.10;99.90
42365;DHT22;28498;54.400;18.566;2023-01-24T07:53:02;-1.10;99.90
42365;DHT22;28498;54.400;18.566;2023-01-24T07:55:30;-1.00;99.90
42365;DHT22;28498;54.400;18.566;2023-01-24T07:58:02;-1.00;99.90
42365;DHT22;28498;54.400;18.566;2023-01-24T08:00:29;-1.00;99.90
42365;DHT22;28498;54.400;18.566;2023-01-24T08:02:56;-1.10;99.90
42365;DHT22;28498;54.400;18.566;2023-01-24T08:05:24;-1.00;99.90
42365;DHT22;28498;54.400;18.566;2023-01-24T08:07:53;-0.90;99.90
42365;DHT22;28498;54.400;18.566;2023-01-24T08:10:21;-0.80;99.90
42365;DHT22;28498;54.400;18.566;2023-01-24T08:12:49;-0.80;99.90
42365;DHT22;28498;54.400;18.566;2023-01-24T08:15:17;-0.80;99.90
42365;DHT22;28498;54.400;18.566;2023-01-24T08:17:44;-0.70;99.90
42365;DHT22;28498;54.400;18.566;2023-01-24T08:20:11;-0.70;99.90
42365;DHT22;28498;54.400;18.566;2023-01-24T08:22:41;-0.80;99.90
42365;DHT22;28498;54.400;18.566;2023-01-24T08:25:22;-0.80;99.90
42365;DHT22;28498;54.400;18.566;2023-01-24T08:27:50;-0.80;99.90
42365;DHT22;28498;54.400;18.566;2023-01-24T08:30:17;-0.70;99.90
42365;DHT22;28498;54.400;18.566;2023-01-24T08:32:44;-0.70;99.90
42365;DHT22;28498;54.400;18.566;2023-01-24T08:35:12;-0.60;99.90
42365;DHT22;28498;54.400;18.566;2023-01-24T08:37:39;-0.70;99.90
42365;DHT22;28498;54.400;18.566;2023-01-24T08:40:06;-0.70;99.90
42365;DHT22;28498;54.400;18.566;2023-01-24T08:42:35;-0.70;99.90
42365;DHT22;28498;54.400;18.566;2023-01-24T08:45:03;-0.70;99.90
42365;DHT22;28498;54.400;18.566;2023-01-24T08:47:29;-0.60;99.90
42365;DHT22;28498;54.400;18.566;2023-01-24T08:49:56;-0.60;99.90
42365;DHT22;28498;54.400;18.566;2023-01-24T08:52:23;-0.60;99.90
42365;DHT22;28498;54.400;18.566;2023-01-24T08:54:50;-0.50;99.90
42365;DHT22;28498;54.400;18.566;2023-01-24T08:57:17;-0.50;99.90
42365;DHT22;28498;54.400;18.566;2023-01-24T08:59:44;-0.50;99.90
42365;DHT22;28498;54.400;18.566;2023-01-24T09:02:14;-0.50;99.90
42365;DHT22;28498;54.400;18.566;2023-01-24T09:04:41;-0.50;99.90
42365;DHT22;28498;54.400;18.566;2023-01-24T09:07:12;-0.50;99.90
42365;DHT22;28498;54.400;18.566;2023-01-24T09:09:39;-0.30;99.90
42365;DHT22;28498;54.400;18.566;2023-01-24T09:12:06;-0.20;99.90
42365;DHT22;28498;54.400;18.566;2023-01-24T09:14:33;-0.10;99.90
42365;DHT22;28498;54.400;18.566;2023-01-24T09:17:00;-0.30;99.90
42365;DHT22;28498;54.400;18.566;2023-01-24T09:19:27;-0.10;99.90
42365;DHT22;28498;54.400;18.566;2023-01-24T09:21:54;-0.20;99.90
42365;DHT22;28498;54.400;18.566;2023-01-24T09:24:24;-0.30;99.90
42365;DHT22;28498;54.400;18.566;2023-01-24T09:26:51;-0.40;99.90
42365;DHT22;28498;54.400;18.566;2023-01-24T09:29:18;-0.40;99.90
42365;DHT22;28498;54.400;18.566;2023-01-24T09:31:47;-0.40;99.90
42365;DHT22;28498;54.400;18.566;2023-01-24T09:34:14;-0.50;99.90
42365;DHT22;28498;54.400;18.566;2023-01-24T09:36:42;-0.50;99.90
42365;DHT22;28498;54.400;18.566;2023-01-24T09:39:09;-0.30;99.90
42365;DHT22;28498;54.400;18.566;2023-01-24T09:44:44;-0.30;99.90
42365;DHT22;28498;54.400;18.566;2023-01-24T09:47:22;-0.50;99.90
42365;DHT22;28498;54.400;18.566;2023-01-24T09:50:15;-0.50;99.90
42365;DHT22;28498;54.400;18.566;2023-01-24T09:52:48;-0.40;99.90
42365;DHT22;28498;54.400;18.566;2023-01-24T09:55:31;-0.20;99.90
42365;DHT22;28498;54.400;18.566;2023-01-24T09:58:04;-0.30;99.90
42365;DHT22;28498;54.400;18.566;2023-01-24T10:00:37;-0.40;99.90
42365;DHT22;28498;54.400;18.566;2023-01-24T10:03:23;-0.50;99.90
42365;DHT22;28498;54.400;18.566;2023-01-24T10:05:55;-0.30;99.90
42365;DHT22;28498;54.400;18.566;2023-01-24T10:11:59;0.00;99.90
42365;DHT22;28498;54.400;18.566;2023-01-24T10:14:46;0.10;99.90
42365;DHT22;28498;54.400;18.566;2023-01-24T10:25:56;0.10;99.90
42365;DHT22;28498;54.400;18.566;2023-01-24T10:28:33;-0.30;99.90
42365;DHT22;28498;54.400;18.566;2023-01-24T10:31:04;-0.30;99.90
42365;DHT22;28498;54.400;18.566;2023-01-24T10:33:41;-0.30;99.90
42365;DHT22;28498;54.400;18.566;2023-01-24T10:38:41;-0.30;99.90
42365;DHT22;28498;54.400;18.566;2023-01-24T10:41:22;-0.20;99.90
42365;DHT22;28498;54.400;18.566;2023-01-24T10:43:58;-0.10;99.90
42365;DHT22;28498;54.400;18.566;2023-01-24T10:49:37;0.10;99.90
42365;DHT22;28498;54.400;18.566;2023-01-24T10:54:48;-0.40;99.90
42365;DHT22;28498;54.400;18.566;2023-01-24T10:57:40;-0.30;99.90
42365;DHT22;28498;54.400;18.566;2023-01-24T11:02:41;-0.40;99.90
42365;DHT22;28498;54.400;18.566;2023-01-24T11:05:14;-0.40;99.90
42365;DHT22;28498;54.400;18.566;2023-01-24T11:07:49;-0.30;99.90
42365;DHT22;28498;54.400;18.566;2023-01-24T11:10:30;-0.50;99.90
42365;DHT22;28498;54.400;18.566;2023-01-24T11:13:02;-0.30;99.90
42365;DHT22;28498;54.400;18.566;2023-01-24T11:15:34;-0.10;99.90
42365;DHT22;28498;54.400;18.566;2023-01-24T11:18:16;0.10;99.90
42365;DHT22;28498;54.400;18.566;2023-01-24T11:20:46;-0.10;99.90
42365;DHT22;28498;54.400;18.566;2023-01-24T11:23:20;-0.40;99.90
42365;DHT22;28498;54.400;18.566;2023-01-24T11:25:57;-0.50;99.90
42365;DHT22;28498;54.400;18.566;2023-01-24T11:28:26;-0.40;99.90
42365;DHT22;28498;54.400;18.566;2023-01-24T11:30:55;-0.40;99.90
42365;DHT22;28498;54.400;18.566;2023-01-24T11:37:01;-0.40;99.90
42365;DHT22;28498;54.400;18.566;2023-01-24T11:40:14;-0.20;99.90
42365;DHT22;28498;54.400;18.566;2023-01-24T11:42:41;-0.20;99.90
42365;DHT22;28498;54.400;18.566;2023-01-24T11:48:22;-0.50;99.90
42365;DHT22;28498;54.400;18.566;2023-01-24T11:56:29;-0.30;99.90
42365;DHT22;28498;54.400;18.566;2023-01-24T12:02:40;-0.40;99.90
42365;DHT22;28498;54.400;18.566;2023-01-24T12:05:27;-0.40;99.90
42365;DHT22;28498;54.400;18.566;2023-01-24T12:16:55;-0.40;99.90
42365;DHT22;28498;54.400;18.566;2023-01-24T12:21:56;-0.30;99.90
42365;DHT22;28498;54.400;18.566;2023-01-24T12:24:27;-0.40;99.90
42365;DHT22;28498;54.400;18.566;2023-01-24T12:27:01;-0.50;99.90
42365;DHT22;28498;54.400;18.566;2023-01-24T12:29:40;-0.70;99.90
42365;DHT22;28498;54.400;18.566;2023-01-24T12:38:00;-0.30;99.90
42365;DHT22;28498;54.400;18.566;2023-01-24T12:48:50;0.00;99.90
42365;DHT22;28498;54.400;18.566;2023-01-24T12:59:17;0.00;99.90
42365;DHT22;28498;54.400;18.566;2023-01-24T13:09:55;0.00;99.90
42365;DHT22;28498;54.400;18.566;2023-01-24T13:12:27;0.00;99.90
42365;DHT22;28498;54.400;18.566;2023-01-24T13:15:05;0.00;99.90
42365;DHT22;28498;54.400;18.566;2023-01-24T13:18:00;-0.10;99.90
42365;DHT22;28498;54.400;18.566;2023-01-24T13:23:27;0.10;99.90
42365;DHT22;28498;54.400;18.566;2023-01-24T13:26:13;0.10;99.90
42365;DHT22;28498;54.400;18.566;2023-01-24T13:29:36;0.20;99.90
42365;DHT22;28498;54.400;18.566;2023-01-24T13:32:01;0.30;99.90
42365;DHT22;28498;54.400;18.566;2023-01-24T13:34:36;0.20;99.90
42365;DHT22;28498;54.400;18.566;2023-01-24T13:37:05;0.20;99.90
42365;DHT22;28498;54.400;18.566;2023-01-24T13:39:37;0.30;99.90
42365;DHT22;28498;54.400;18.566;2023-01-24T13:42:23;0.30;99.90
42365;DHT22;28498;54.400;18.566;2023-01-24T13:44:57;0.40;99.90
42365;DHT22;28498;54.400;18.566;2023-01-24T13:47:27;0.40;99.90
42365;DHT22;28498;54.400;18.566;2023-01-24T13:55:03;0.40;99.90
42365;DHT22;28498;54.400;18.566;2023-01-24T13:57:32;0.30;99.90
42365;DHT22;28498;54.400;18.566;2023-01-24T14:02:34;0.20;99.90
42365;DHT22;28498;54.400;18.566;2023-01-24T14:05:03;0.30;99.90
42365;DHT22;28498;54.400;18.566;2023-01-24T14:07:36;0.30;99.90
42365;DHT22;28498;54.400;18.566;2023-01-24T14:10:06;0.30;99.90
42365;DHT22;28498;54.400;18.566;2023-01-24T14:12:39;0.30;99.90
42365;DHT22;28498;54.400;18.566;2023-01-24T14:20:38;0.40;99.90
42365;DHT22;28498;54.400;18.566;2023-01-24T14:23:20;0.30;99.90
42365;DHT22;28498;54.400;18.566;2023-01-24T14:25:54;0.30;99.90
42365;DHT22;28498;54.400;18.566;2023-01-24T14:30:58;0.20;99.90
42365;DHT22;28498;54.400;18.566;2023-01-24T14:33:50;0.20;99.90
42365;DHT22;28498;54.400;18.566;2023-01-24T14:36:31;0.20;99.90
42365;DHT22;28498;54.400;18.566;2023-01-24T14:41:48;0.30;99.90
42365;DHT22;28498;54.400;18.566;2023-01-24T14:44:20;0.30;99.90
42365;DHT22;28498;54.400;18.566;2023-01-24T14:46:59;0.30;99.90
42365;DHT22;28498;54.400;18.566;2023-01-24T14:49:48;0.30;99.90
42365;DHT22;28498;54.400;18.566;2023-01-24T14:52:24;0.30;99.90
42365;DHT22;28498;54.400;18.566;2023-01-24T14:54:53;0.30;99.90
42365;DHT22;28498;54.400;18.566;2023-01-24T15:03:00;0.30;99.90
42365;DHT22;28498;54.400;18.566;2023-01-24T15:05:35;0.40;99.90
42365;DHT22;28498;54.400;18.566;2023-01-24T15:08:05;0.40;99.90
42365;DHT22;28498;54.400;18.566;2023-01-24T15:10:33;0.30;99.90
42365;DHT22;28498;54.400;18.566;2023-01-24T15:13:04;0.30;99.90
42365;DHT22;28498;54.400;18.566;2023-01-24T15:15:33;0.30;99.90
42365;DHT22;28498;54.400;18.566;2023-01-24T15:18:06;0.30;99.90
42365;DHT22;28498;54.400;18.566;2023-01-24T15:20:37;0.20;99.90
42365;DHT22;28498;54.400;18.566;2023-01-24T15:23:04;0.20;99.90
42365;DHT22;28498;54.400;18.566;2023-01-24T15:25:36;0.30;99.90
42365;DHT22;28498;54.400;18.566;2023-01-24T15:28:32;0.30;99.90
42365;DHT22;28498;54.400;18.566;2023-01-24T15:31:00;0.30;99.90
42365;DHT22;28498;54.400;18.566;2023-01-24T15:33:52;0.30;99.90
42365;DHT22;28498;54.400;18.566;2023-01-24T15:36:26;0.30;99.90
42365;DHT22;28498;54.400;18.566;2023-01-24T15:38:55;0.30;99.90
42365;DHT22;28498;54.400;18.566;2023-01-24T15:41:24;0.30;99.90
42365;DHT22;28498;54.400;18.566;2023-01-24T15:44:12;0.30;99.90
42365;DHT22;28498;54.400;18.566;2023-01-24T15:46:41;0.30;99.90
42365;DHT22;28498;54.400;18.566;2023-01-24T15:49:35;0.30;99.90
42365;DHT22;28498;54.400;18.566;2023-01-24T15:54:38;0.30;99.90
42365;DHT22;28498;54.400;18.566;2023-01-24T15:59:58;0.30;99.90
42365;DHT22;28498;54.400;18.566;2023-01-24T16:02:27;0.30;99.90
42365;DHT22;28498;54.400;18.566;2023-01-24T16:04:54;0.40;99.90
42365;DHT22;28498;54.400;18.566;2023-01-24T16:07:21;0.30;99.90
42365;DHT22;28498;54.400;18.566;2023-01-24T16:09:49;0.30;99.90
42365;DHT22;28498;54.400;18.566;2023-01-24T16:12:18;0.40;99.90
42365;DHT22;28498;54.400;18.566;2023-01-24T16:14:50;0.40;99.90
42365;DHT22;28498;54.400;18.566;2023-01-24T16:17:33;0.40;99.90
42365;DHT22;28498;54.400;18.566;2023-01-24T16:20:00;0.40;99.90
42365;DHT22;28498;54.400;18.566;2023-01-24T16:22:28;0.40;99.90
42365;DHT22;28498;54.400;18.566;2023-01-24T16:24:55;0.40;99.90
42365;DHT22;28498;54.400;18.566;2023-01-24T16:27:23;0.40;99.90
42365;DHT22;28498;54.400;18.566;2023-01-24T16:29:50;0.40;99.90
42365;DHT22;28498;54.400;18.566;2023-01-24T16:32:19;0.40;99.90
42365;DHT22;28498;54.400;18.566;2023-01-24T16:34:46;0.40;99.90
42365;DHT22;28498;54.400;18.566;2023-01-24T16:37:13;0.40;99.90
42365;DHT22;28498;54.400;18.566;2023-01-24T16:39:40;0.40;99.90
42365;DHT22;28498;54.400;18.566;2023-01-24T16:42:14;0.40;99.90
42365;DHT22;28498;54.400;18.566;2023-01-24T16:44:41;0.40;99.90
42365;DHT22;28498;54.400;18.566;2023-01-24T16:47:08;0.40;99.90
42365;DHT22;28498;54.400;18.566;2023-01-24T16:49:36;0.40;99.90
42365;DHT22;28498;54.400;18.566;2023-01-24T16:52:03;0.40;99.90
42365;DHT22;28498;54.400;18.566;2023-01-24T16:54:45;0.40;99.90
42365;DHT22;28498;54.400;18.566;2023-01-24T16:57:12;0.40;99.90
42365;DHT22;28498;54.400;18.566;2023-01-24T16:59:39;0.40;99.90
42365;DHT22;28498;54.400;18.566;2023-01-24T17:02:06;0.50;99.90
42365;DHT22;28498;54.400;18.566;2023-01-24T17:04:33;0.40;99.90
42365;DHT22;28498;54.400;18.566;2023-01-24T17:07:00;0.50;99.90
42365;DHT22;28498;54.400;18.566;2023-01-24T17:09:31;0.40;99.90
42365;DHT22;28498;54.400;18.566;2023-01-24T17:11:59;0.50;99.90
42365;DHT22;28498;54.400;18.566;2023-01-24T17:14:39;0.50;99.90
42365;DHT22;28498;54.400;18.566;2023-01-24T17:17:07;0.50;99.90
42365;DHT22;28498;54.400;18.566;2023-01-24T17:19:35;0.50;99.90
42365;DHT22;28498;54.400;18.566;2023-01-24T17:22:04;0.50;99.90
42365;DHT22;28498;54.400;18.566;2023-01-24T17:24:32;0.50;99.90
42365;DHT22;28498;54.400;18.566;2023-01-24T17:26:59;0.50;99.90
42365;DHT22;28498;54.400;18.566;2023-01-24T17:29:26;0.50;99.90
42365;DHT22;28498;54.400;18.566;2023-01-24T17:31:55;0.50;99.90
42365;DHT22;28498;54.400;18.566;2023-01-24T17:38:10;0.60;99.90
42365;DHT22;28498;54.400;18.566;2023-01-24T17:40:38;0.60;99.90
42365;DHT22;28498;54.400;18.566;2023-01-24T17:43:05;0.60;99.90
42365;DHT22;28498;54.400;18.566;2023-01-24T17:45:32;0.60;99.90
42365;DHT22;28498;54.400;18.566;2023-01-24T17:48:01;0.60;99.90
42365;DHT22;28498;54.400;18.566;2023-01-24T17:50:28;0.60;99.90
42365;DHT22;28498;54.400;18.566;2023-01-24T17:52:55;0.60;99.90
42365;DHT22;28498;54.400;18.566;2023-01-24T17:55:22;0.60;99.90